sensor_id;sensor_type;location;lat;lon;timestamp;P1;durP1;ratioP1;P2;durP2;ratioP2
51312;SDS011;37397;53.226;10.400;2023-08-31T00:01:22;10.23;;;7.28;;
51312;SDS011;37397;53.226;10.400;2023-08-31T00:03:49;9.00;;;7.05;;
51312;SDS011;37397;53.226;10.400;2023-08-31T00:06:15;8.98;;;6.75;;
51312;SDS011;37397;53.226;10.400;2023-08-31T00:08:42;8.90;;;6.82;;
51312;SDS011;37397;53.226;10.400;2023-08-31T00:11:08;10.85;;;7.45;;
51312;SDS011;37397;53.226;10.400;2023-08-31T00:13:35;9.02;;;6.97;;
51312;SDS011;37397;53.226;10.400;2023-08-31T00:16:01;10.65;;;6.80;;
51312;SDS011;37397;53.226;10.400;2023-08-31T00:18:29;9.63;;;7.50;;
51312;SDS011;37397;53.226;10.400;2023-08-31T00:20:55;9.50;;;6.88;;
51312;SDS011;37397;53.226;10.400;2023-08-31T00:23:22;11.05;;;7.20;;
51312;SDS011;37397;53.226;10.400;2023-08-31T00:25:49;8.50;;;6.55;;
51312;SDS011;37397;53.226;10.400;2023-08-31T00:28:17;10.50;;;7.53;;
51312;SDS011;37397;53.226;10.400;2023-08-31T00:30:45;9.57;;;7.18;;
51312;SDS011;37397;53.226;10.400;2023-08-31T00:33:12;9.98;;;7.07;;
51312;SDS011;37397;53.226;10.400;2023-08-31T00:35:40;11.10;;;7.80;;
51312;SDS011;37397;53.226;10.400;2023-08-31T00:38:12;8.68;;;7.07;;
51312;SDS011;37397;53.226;10.400;2023-08-31T00:40:40;10.27;;;6.63;;
51312;SDS011;37397;53.226;10.400;2023-08-31T00:43:10;9.10;;;6.75;;
51312;SDS011;37397;53.226;10.400;2023-08-31T00:45:38;10.27;;;7.55;;
51312;SDS011;37397;53.226;10.400;2023-08-31T00:48:07;9.52;;;7.13;;
51312;SDS011;37397;53.226;10.400;2023-08-31T00:50:34;8.98;;;6.57;;
51312;SDS011;37397;53.226;10.400;2023-08-31T00:53:01;11.10;;;7.40;;
51312;SDS011;37397;53.226;10.400;2023-08-31T00:55:31;10.23;;;6.70;;
51312;SDS011;37397;53.226;10.400;2023-08-31T00:57:58;10.45;;;7.18;;
51312;SDS011;37397;53.226;10.400;2023-08-31T01:00:33;10.35;;;7.75;;
51312;SDS011;37397;53.226;10.400;2023-08-31T01:03:17;9.52;;;7.60;;
51312;SDS011;37397;53.226;10.400;2023-08-31T01:06:06;9.30;;;7.07;;
51312;SDS011;37397;53.226;10.400;2023-08-31T01:08:57;10.25;;;7.55;;
51312;SDS011;37397;53.226;10.400;2023-08-31T01:14:32;9.35;;;7.18;;
51312;SDS011;37397;53.226;10.400;2023-08-31T01:17:03;9.82;;;7.55;;
51312;SDS011;37397;53.226;10.400;2023-08-31T01:19:34;9.32;;;7.32;;
51312;SDS011;37397;53.226;10.400;2023-08-31T01:22:13;11.60;;;7.40;;
51312;SDS011;37397;53.226;10.400;2023-08-31T01:24:45;9.52;;;7.30;;
51312;SDS011;37397;53.226;10.400;2023-08-31T01:27:12;11.30;;;6.80;;
51312;SDS011;37397;53.226;10.400;2023-08-31T01:29:39;9.52;;;7.22;;
51312;SDS011;37397;53.226;10.400;2023-08-31T01:32:06;10.50;;;7.15;;
51312;SDS011;37397;53.226;10.400;2023-08-31T01:34:33;9.50;;;6.97;;
51312;SDS011;37397;53.226;10.400;2023-08-31T01:37:14;8.90;;;6.88;;
51312;SDS011;37397;53.226;10.400;2023-08-31T01:39:47;10.13;;;6.97;;
51312;SDS011;37397;53.226;10.400;2023-08-31T01:42:22;10.38;;;7.38;;
51312;SDS011;37397;53.226;10.400;2023-08-31T01:44:52;10.25;;;7.32;;
51312;SDS011;37397;53.226;10.400;2023-08-31T01:47:22;13.05;;;6.82;;
51312;SDS011;37397;53.226;10.400;2023-08-31T01:49:50;11.48;;;7.18;;
51312;SDS011;37397;53.226;10.400;2023-08-31T01:52:17;9.93;;;7.00;;
51312;SDS011;37397;53.226;10.400;2023-08-31T01:54:44;9.85;;;7.15;;
51312;SDS011;37397;53.226;10.400;2023-08-31T01:57:10;8.18;;;6.47;;
51312;SDS011;37397;53.226;10.400;2023-08-31T01:59:56;9.88;;;6.47;;
51312;SDS011;37397;53.226;10.400;2023-08-31T02:02:23;8.43;;;6.13;;
51312;SDS011;37397;53.226;10.400;2023-08-31T02:04:49;10.98;;;6.60;;
51312;SDS011;37397;53.226;10.400;2023-08-31T02:07:17;8.85;;;6.65;;
51312;SDS011;37397;53.226;10.400;2023-08-31T02:09:44;10.00;;;6.38;;
51312;SDS011;37397;53.226;10.400;2023-08-31T02:12:11;10.77;;;6.57;;
51312;SDS011;37397;53.226;10.400;2023-08-31T02:14:37;9.32;;;6.00;;
51312;SDS011;37397;53.226;10.400;2023-08-31T02:17:04;8.32;;;5.85;;
51312;SDS011;37397;53.226;10.400;2023-08-31T02:19:31;10.65;;;7.20;;
51312;SDS011;37397;53.226;10.400;2023-08-31T02:21:58;10.55;;;7.18;;
51312;SDS011;37397;53.226;10.400;2023-08-31T02:24:24;10.52;;;6.43;;
51312;SDS011;37397;53.226;10.400;2023-08-31T02:26:51;9.07;;;6.47;;
51312;SDS011;37397;53.226;10.400;2023-08-31T02:29:18;11.00;;;6.30;;
51312;SDS011;37397;53.226;10.400;2023-08-31T02:31:45;12.98;;;6.45;;
51312;SDS011;37397;53.226;10.400;2023-08-31T02:34:11;10.30;;;7.00;;
51312;SDS011;37397;53.226;10.400;2023-08-31T02:36:38;10.38;;;6.55;;
51312;SDS011;37397;53.226;10.400;2023-08-31T02:39:04;10.40;;;5.80;;
51312;SDS011;37397;53.226;10.400;2023-08-31T02:41:35;11.57;;;6.20;;
51312;SDS011;37397;53.226;10.400;2023-08-31T02:44:03;9.13;;;6.80;;
51312;SDS011;37397;53.226;10.400;2023-08-31T02:46:30;10.10;;;5.57;;
51312;SDS011;37397;53.226;10.400;2023-08-31T02:48:57;10.20;;;6.10;;
51312;SDS011;37397;53.226;10.400;2023-08-31T02:51:24;10.00;;;5.97;;
51312;SDS011;37397;53.226;10.400;2023-08-31T02:53:50;11.40;;;5.90;;
51312;SDS011;37397;53.226;10.400;2023-08-31T02:56:19;8.93;;;5.53;;
51312;SDS011;37397;53.226;10.400;2023-08-31T02:58:45;8.60;;;5.53;;
51312;SDS011;37397;53.226;10.400;2023-08-31T03:01:12;8.70;;;5.57;;
51312;SDS011;37397;53.226;10.400;2023-08-31T03:03:44;8.07;;;5.05;;
51312;SDS011;37397;53.226;10.400;2023-08-31T03:06:12;8.55;;;4.80;;
51312;SDS011;37397;53.226;10.400;2023-08-31T03:08:38;9.95;;;5.32;;
51312;SDS011;37397;53.226;10.400;2023-08-31T03:11:06;7.97;;;5.75;;
51312;SDS011;37397;53.226;10.400;2023-08-31T03:13:34;9.90;;;4.90;;
51312;SDS011;37397;53.226;10.400;2023-08-31T03:16:01;7.53;;;4.68;;
51312;SDS011;37397;53.226;10.400;2023-08-31T03:18:28;7.90;;;5.00;;
51312;SDS011;37397;53.226;10.400;2023-08-31T03:20:55;9.40;;;4.60;;
51312;SDS011;37397;53.226;10.400;2023-08-31T03:23:23;10.90;;;5.18;;
51312;SDS011;37397;53.226;10.400;2023-08-31T03:25:50;11.43;;;5.07;;
51312;SDS011;37397;53.226;10.400;2023-08-31T03:28:19;8.68;;;5.07;;
51312;SDS011;37397;53.226;10.400;2023-08-31T03:30:46;10.25;;;4.97;;
51312;SDS011;37397;53.226;10.400;2023-08-31T03:33:12;9.18;;;4.30;;
51312;SDS011;37397;53.226;10.400;2023-08-31T03:35:40;8.90;;;4.43;;
51312;SDS011;37397;53.226;10.400;2023-08-31T03:38:06;6.80;;;3.90;;
51312;SDS011;37397;53.226;10.400;2023-08-31T03:40:34;9.30;;;4.47;;
51312;SDS011;37397;53.226;10.400;2023-08-31T03:43:01;9.48;;;4.22;;
51312;SDS011;37397;53.226;10.400;2023-08-31T03:45:27;8.50;;;3.88;;
51312;SDS011;37397;53.226;10.400;2023-08-31T03:47:54;9.23;;;4.00;;
51312;SDS011;37397;53.226;10.400;2023-08-31T03:50:20;6.45;;;3.92;;
51312;SDS011;37397;53.226;10.400;2023-08-31T03:52:47;7.10;;;3.90;;
51312;SDS011;37397;53.226;10.400;2023-08-31T03:55:13;9.35;;;3.88;;
51312;SDS011;37397;53.226;10.400;2023-08-31T03:57:40;7.63;;;3.65;;
51312;SDS011;37397;53.226;10.400;2023-08-31T04:00:13;8.90;;;3.75;;
51312;SDS011;37397;53.226;10.400;2023-08-31T04:02:42;7.43;;;3.72;;
51312;SDS011;37397;53.226;10.400;2023-08-31T04:05:10;7.70;;;3.92;;
51312;SDS011;37397;53.226;10.400;2023-08-31T04:07:36;6.15;;;3.80;;
51312;SDS011;37397;53.226;10.400;2023-08-31T04:10:03;7.75;;;4.20;;
51312;SDS011;37397;53.226;10.400;2023-08-31T04:12:30;7.78;;;4.65;;
51312;SDS011;37397;53.226;10.400;2023-08-31T04:14:58;10.80;;;3.88;;
51312;SDS011;37397;53.226;10.400;2023-08-31T04:17:24;6.75;;;3.67;;
51312;SDS011;37397;53.226;10.400;2023-08-31T04:19:51;9.07;;;3.95;;
51312;SDS011;37397;53.226;10.400;2023-08-31T04:22:18;10.38;;;4.22;;
51312;SDS011;37397;53.226;10.400;2023-08-31T04:24:44;7.55;;;3.90;;
51312;SDS011;37397;53.226;10.400;2023-08-31T04:27:11;8.02;;;3.63;;
51312;SDS011;37397;53.226;10.400;2023-08-31T04:29:38;7.07;;;3.47;;
51312;SDS011;37397;53.226;10.400;2023-08-31T04:32:04;8.20;;;4.13;;
51312;SDS011;37397;53.226;10.400;2023-08-31T04:34:31;8.27;;;4.20;;
51312;SDS011;37397;53.226;10.400;2023-08-31T04:36:58;7.22;;;3.92;;
51312;SDS011;37397;53.226;10.400;2023-08-31T04:39:24;9.43;;;3.90;;
51312;SDS011;37397;53.226;10.400;2023-08-31T04:41:51;8.00;;;4.18;;
51312;SDS011;37397;53.226;10.400;2023-08-31T04:44:17;9.07;;;4.10;;
51312;SDS011;37397;53.226;10.400;2023-08-31T04:46:44;5.93;;;3.92;;
51312;SDS011;37397;53.226;10.400;2023-08-31T04:49:10;6.97;;;3.97;;
51312;SDS011;37397;53.226;10.400;2023-08-31T04:51:37;7.45;;;4.10;;
51312;SDS011;37397;53.226;10.400;2023-08-31T04:54:05;10.77;;;4.88;;
51312;SDS011;37397;53.226;10.400;2023-08-31T04:56:32;10.07;;;4.45;;
51312;SDS011;37397;53.226;10.400;2023-08-31T04:58:59;8.80;;;4.60;;
51312;SDS011;37397;53.226;10.400;2023-08-31T05:01:26;9.65;;;5.07;;
51312;SDS011;37397;53.226;10.400;2023-08-31T05:03:53;9.93;;;5.90;;
51312;SDS011;37397;53.226;10.400;2023-08-31T05:06:20;7.80;;;4.57;;
51312;SDS011;37397;53.226;10.400;2023-08-31T05:08:47;8.75;;;4.80;;
51312;SDS011;37397;53.226;10.400;2023-08-31T05:11:14;9.13;;;4.85;;
51312;SDS011;37397;53.226;10.400;2023-08-31T05:13:41;10.63;;;6.25;;
51312;SDS011;37397;53.226;10.400;2023-08-31T05:16:10;11.52;;;5.22;;
51312;SDS011;37397;53.226;10.400;2023-08-31T05:18:37;11.00;;;5.80;;
51312;SDS011;37397;53.226;10.400;2023-08-31T05:21:05;15.50;;;6.15;;
51312;SDS011;37397;53.226;10.400;2023-08-31T05:23:32;12.13;;;5.40;;
51312;SDS011;37397;53.226;10.400;2023-08-31T05:25:59;10.90;;;5.43;;
51312;SDS011;37397;53.226;10.400;2023-08-31T05:28:27;9.30;;;4.78;;
51312;SDS011;37397;53.226;10.400;2023-08-31T05:30:55;12.82;;;6.03;;
51312;SDS011;37397;53.226;10.400;2023-08-31T05:33:24;8.40;;;4.57;;
51312;SDS011;37397;53.226;10.400;2023-08-31T05:35:53;8.55;;;5.03;;
51312;SDS011;37397;53.226;10.400;2023-08-31T05:38:20;10.20;;;4.82;;
51312;SDS011;37397;53.226;10.400;2023-08-31T05:40:46;10.88;;;5.18;;
51312;SDS011;37397;53.226;10.400;2023-08-31T05:43:13;11.98;;;5.22;;
51312;SDS011;37397;53.226;10.400;2023-08-31T05:45:40;7.55;;;4.68;;
51312;SDS011;37397;53.226;10.400;2023-08-31T05:48:07;10.43;;;5.35;;
51312;SDS011;37397;53.226;10.400;2023-08-31T05:50:34;8.57;;;4.55;;
51312;SDS011;37397;53.226;10.400;2023-08-31T05:53:02;10.73;;;4.82;;
51312;SDS011;37397;53.226;10.400;2023-08-31T05:55:30;8.90;;;4.97;;
51312;SDS011;37397;53.226;10.400;2023-08-31T05:57:58;9.30;;;4.38;;
51312;SDS011;37397;53.226;10.400;2023-08-31T06:00:25;9.95;;;4.88;;
51312;SDS011;37397;53.226;10.400;2023-08-31T06:02:52;7.63;;;4.07;;
51312;SDS011;37397;53.226;10.400;2023-08-31T06:05:18;7.30;;;4.47;;
51312;SDS011;37397;53.226;10.400;2023-08-31T06:07:45;11.02;;;4.68;;
51312;SDS011;37397;53.226;10.400;2023-08-31T06:10:12;10.57;;;4.10;;
51312;SDS011;37397;53.226;10.400;2023-08-31T06:12:39;8.55;;;4.30;;
51312;SDS011;37397;53.226;10.400;2023-08-31T06:15:06;9.80;;;4.95;;
51312;SDS011;37397;53.226;10.400;2023-08-31T06:17:33;8.77;;;4.05;;
51312;SDS011;37397;53.226;10.400;2023-08-31T06:20:01;8.45;;;4.50;;
51312;SDS011;37397;53.226;10.400;2023-08-31T06:22:28;13.25;;;4.55;;
51312;SDS011;37397;53.226;10.400;2023-08-31T06:24:54;8.88;;;4.53;;
51312;SDS011;37397;53.226;10.400;2023-08-31T06:27:21;11.95;;;4.70;;
51312;SDS011;37397;53.226;10.400;2023-08-31T06:29:47;11.25;;;5.70;;
51312;SDS011;37397;53.226;10.400;2023-08-31T06:32:14;11.80;;;5.25;;
51312;SDS011;37397;53.226;10.400;2023-08-31T06:34:41;12.85;;;5.28;;
51312;SDS011;37397;53.226;10.400;2023-08-31T06:37:08;12.98;;;5.25;;
51312;SDS011;37397;53.226;10.400;2023-08-31T06:39:34;11.63;;;5.70;;
51312;SDS011;37397;53.226;10.400;2023-08-31T06:42:02;11.45;;;4.70;;
51312;SDS011;37397;53.226;10.400;2023-08-31T06:44:30;9.38;;;4.75;;
51312;SDS011;37397;53.226;10.400;2023-08-31T06:46:56;11.55;;;5.30;;
51312;SDS011;37397;53.226;10.400;2023-08-31T06:49:23;10.35;;;5.03;;
51312;SDS011;37397;53.226;10.400;2023-08-31T06:51:50;10.73;;;4.72;;
51312;SDS011;37397;53.226;10.400;2023-08-31T06:54:17;12.07;;;4.60;;
51312;SDS011;37397;53.226;10.400;2023-08-31T06:56:43;6.97;;;4.07;;
51312;SDS011;37397;53.226;10.400;2023-08-31T06:59:10;8.70;;;4.72;;
51312;SDS011;37397;53.226;10.400;2023-08-31T07:01:36;9.15;;;4.32;;
51312;SDS011;37397;53.226;10.400;2023-08-31T07:04:03;9.68;;;4.82;;
51312;SDS011;37397;53.226;10.400;2023-08-31T07:06:31;8.10;;;4.53;;
51312;SDS011;37397;53.226;10.400;2023-08-31T07:08:59;8.80;;;4.32;;
51312;SDS011;37397;53.226;10.400;2023-08-31T07:11:26;8.20;;;4.07;;
51312;SDS011;37397;53.226;10.400;2023-08-31T07:13:53;8.25;;;4.50;;
51312;SDS011;37397;53.226;10.400;2023-08-31T07:16:20;9.27;;;4.22;;
51312;SDS011;37397;53.226;10.400;2023-08-31T07:18:47;11.40;;;4.75;;
51312;SDS011;37397;53.226;10.400;2023-08-31T07:21:13;10.90;;;4.82;;
51312;SDS011;37397;53.226;10.400;2023-08-31T07:23:40;11.07;;;4.65;;
51312;SDS011;37397;53.226;10.400;2023-08-31T07:26:06;9.45;;;3.95;;
51312;SDS011;37397;53.226;10.400;2023-08-31T07:28:33;10.00;;;4.38;;
51312;SDS011;37397;53.226;10.400;2023-08-31T07:31:04;10.60;;;4.40;;
51312;SDS011;37397;53.226;10.400;2023-08-31T07:33:33;10.20;;;3.85;;
51312;SDS011;37397;53.226;10.400;2023-08-31T07:36:04;8.90;;;4.20;;
51312;SDS011;37397;53.226;10.400;2023-08-31T07:38:32;9.13;;;4.30;;
51312;SDS011;37397;53.226;10.400;2023-08-31T07:40:59;9.02;;;4.43;;
51312;SDS011;37397;53.226;10.400;2023-08-31T07:43:26;8.80;;;4.03;;
51312;SDS011;37397;53.226;10.400;2023-08-31T07:45:53;7.90;;;3.92;;
51312;SDS011;37397;53.226;10.400;2023-08-31T07:48:20;8.80;;;4.28;;
51312;SDS011;37397;53.226;10.400;2023-08-31T07:50:47;8.57;;;4.28;;
51312;SDS011;37397;53.226;10.400;2023-08-31T07:53:14;8.73;;;4.05;;
51312;SDS011;37397;53.226;10.400;2023-08-31T07:55:41;8.60;;;3.40;;
51312;SDS011;37397;53.226;10.400;2023-08-31T07:58:08;6.55;;;3.40;;
51312;SDS011;37397;53.226;10.400;2023-08-31T08:00:34;7.80;;;3.30;;
51312;SDS011;37397;53.226;10.400;2023-08-31T08:03:01;10.27;;;3.72;;
51312;SDS011;37397;53.226;10.400;2023-08-31T08:05:27;5.80;;;3.00;;
51312;SDS011;37397;53.226;10.400;2023-08-31T08:07:54;5.43;;;3.00;;
51312;SDS011;37397;53.226;10.400;2023-08-31T08:10:20;6.72;;;3.45;;
51312;SDS011;37397;53.226;10.400;2023-08-31T08:12:47;9.00;;;3.10;;
51312;SDS011;37397;53.226;10.400;2023-08-31T08:15:14;7.20;;;3.67;;
51312;SDS011;37397;53.226;10.400;2023-08-31T08:17:40;7.20;;;3.42;;
51312;SDS011;37397;53.226;10.400;2023-08-31T08:20:07;6.70;;;3.10;;
51312;SDS011;37397;53.226;10.400;2023-08-31T08:22:35;6.80;;;3.22;;
51312;SDS011;37397;53.226;10.400;2023-08-31T08:25:02;5.55;;;3.55;;
51312;SDS011;37397;53.226;10.400;2023-08-31T08:27:29;8.77;;;4.22;;
51312;SDS011;37397;53.226;10.400;2023-08-31T08:29:58;7.40;;;4.20;;
51312;SDS011;37397;53.226;10.400;2023-08-31T08:32:25;8.45;;;4.47;;
51312;SDS011;37397;53.226;10.400;2023-08-31T08:34:51;7.90;;;4.03;;
51312;SDS011;37397;53.226;10.400;2023-08-31T08:37:18;9.70;;;4.55;;
51312;SDS011;37397;53.226;10.400;2023-08-31T08:39:51;8.85;;;4.05;;
51312;SDS011;37397;53.226;10.400;2023-08-31T08:42:19;7.13;;;4.18;;
51312;SDS011;37397;53.226;10.400;2023-08-31T08:44:50;8.00;;;4.00;;
51312;SDS011;37397;53.226;10.400;2023-08-31T08:47:18;6.05;;;3.53;;
51312;SDS011;37397;53.226;10.400;2023-08-31T08:49:45;10.40;;;3.58;;
51312;SDS011;37397;53.226;10.400;2023-08-31T08:52:14;6.30;;;3.03;;
51312;SDS011;37397;53.226;10.400;2023-08-31T08:54:41;6.30;;;3.22;;
51312;SDS011;37397;53.226;10.400;2023-08-31T08:57:08;6.63;;;3.33;;
51312;SDS011;37397;53.226;10.400;2023-08-31T08:59:34;6.82;;;3.10;;
51312;SDS011;37397;53.226;10.400;2023-08-31T09:02:01;7.43;;;3.20;;
51312;SDS011;37397;53.226;10.400;2023-08-31T09:04:30;5.72;;;2.67;;
51312;SDS011;37397;53.226;10.400;2023-08-31T09:06:57;5.43;;;2.60;;
51312;SDS011;37397;53.226;10.400;2023-08-31T09:09:23;8.70;;;3.00;;
51312;SDS011;37397;53.226;10.400;2023-08-31T09:11:50;5.38;;;2.80;;
51312;SDS011;37397;53.226;10.400;2023-08-31T09:14:19;6.15;;;2.60;;
51312;SDS011;37397;53.226;10.400;2023-08-31T09:16:49;4.88;;;2.25;;
51312;SDS011;37397;53.226;10.400;2023-08-31T09:19:21;5.55;;;2.33;;
51312;SDS011;37397;53.226;10.400;2023-08-31T09:21:50;6.22;;;2.50;;
51312;SDS011;37397;53.226;10.400;2023-08-31T09:24:18;4.18;;;2.20;;
51312;SDS011;37397;53.226;10.400;2023-08-31T09:26:45;4.68;;;2.30;;
51312;SDS011;37397;53.226;10.400;2023-08-31T09:29:13;4.78;;;2.72;;
51312;SDS011;37397;53.226;10.400;2023-08-31T09:31:44;7.78;;;2.40;;
51312;SDS011;37397;53.226;10.400;2023-08-31T09:34:11;4.85;;;2.20;;
51312;SDS011;37397;53.226;10.400;2023-08-31T09:36:38;3.60;;;2.00;;
51312;SDS011;37397;53.226;10.400;2023-08-31T09:39:05;5.00;;;2.17;;
51312;SDS011;37397;53.226;10.400;2023-08-31T09:41:32;4.68;;;2.10;;
51312;SDS011;37397;53.226;10.400;2023-08-31T09:44:18;4.10;;;1.95;;
51312;SDS011;37397;53.226;10.400;2023-08-31T09:46:45;5.75;;;2.53;;
51312;SDS011;37397;53.226;10.400;2023-08-31T09:49:13;3.90;;;2.03;;
51312;SDS011;37397;53.226;10.400;2023-08-31T09:51:43;7.07;;;2.20;;
51312;SDS011;37397;53.226;10.400;2023-08-31T09:54:20;4.75;;;2.22;;
51312;SDS011;37397;53.226;10.400;2023-08-31T09:56:52;6.32;;;2.50;;
51312;SDS011;37397;53.226;10.400;2023-08-31T09:59:21;4.97;;;2.20;;
51312;SDS011;37397;53.226;10.400;2023-08-31T10:01:48;3.25;;;2.10;;
51312;SDS011;37397;53.226;10.400;2023-08-31T10:04:15;3.85;;;2.03;;
51312;SDS011;37397;53.226;10.400;2023-08-31T10:06:43;5.18;;;2.10;;
51312;SDS011;37397;53.226;10.400;2023-08-31T10:09:10;3.28;;;2.00;;
51312;SDS011;37397;53.226;10.400;2023-08-31T10:11:37;5.78;;;2.20;;
51312;SDS011;37397;53.226;10.400;2023-08-31T10:14:05;3.40;;;2.05;;
51312;SDS011;37397;53.226;10.400;2023-08-31T10:16:34;4.50;;;2.10;;
51312;SDS011;37397;53.226;10.400;2023-08-31T10:19:02;3.03;;;1.77;;
51312;SDS011;37397;53.226;10.400;2023-08-31T10:21:29;5.32;;;2.30;;
51312;SDS011;37397;53.226;10.400;2023-08-31T10:23:55;2.90;;;1.80;;
51312;SDS011;37397;53.226;10.400;2023-08-31T10:26:29;4.10;;;1.80;;
51312;SDS011;37397;53.226;10.400;2023-08-31T10:28:57;3.08;;;1.75;;
51312;SDS011;37397;53.226;10.400;2023-08-31T10:31:32;3.92;;;2.10;;
51312;SDS011;37397;53.226;10.400;2023-08-31T10:34:04;2.47;;;1.98;;
51312;SDS011;37397;53.226;10.400;2023-08-31T10:36:37;4.25;;;2.05;;
51312;SDS011;37397;53.226;10.400;2023-08-31T10:41:42;4.90;;;2.22;;
51312;SDS011;37397;53.226;10.400;2023-08-31T10:44:20;3.63;;;2.05;;
51312;SDS011;37397;53.226;10.400;2023-08-31T10:46:50;3.88;;;2.25;;
51312;SDS011;37397;53.226;10.400;2023-08-31T10:49:18;3.83;;;2.05;;
51312;SDS011;37397;53.226;10.400;2023-08-31T10:51:48;4.53;;;1.95;;
51312;SDS011;37397;53.226;10.400;2023-08-31T10:54:26;4.90;;;2.13;;
51312;SDS011;37397;53.226;10.400;2023-08-31T10:59:25;3.88;;;2.03;;
51312;SDS011;37397;53.226;10.400;2023-08-31T11:01:56;3.13;;;1.90;;
51312;SDS011;37397;53.226;10.400;2023-08-31T11:04:26;3.15;;;1.83;;
51312;SDS011;37397;53.226;10.400;2023-08-31T11:09:41;4.75;;;1.90;;
51312;SDS011;37397;53.226;10.400;2023-08-31T11:12:08;2.85;;;1.70;;
51312;SDS011;37397;53.226;10.400;2023-08-31T11:14:35;3.63;;;2.05;;
51312;SDS011;37397;53.226;10.400;2023-08-31T11:17:02;4.93;;;1.75;;
51312;SDS011;37397;53.226;10.400;2023-08-31T11:19:33;2.40;;;1.70;;
51312;SDS011;37397;53.226;10.400;2023-08-31T11:22:00;5.50;;;1.85;;
51312;SDS011;37397;53.226;10.400;2023-08-31T11:24:30;1.92;;;1.60;;
51312;SDS011;37397;53.226;10.400;2023-08-31T11:26:58;2.75;;;1.58;;
51312;SDS011;37397;53.226;10.400;2023-08-31T11:29:25;2.55;;;1.65;;
51312;SDS011;37397;53.226;10.400;2023-08-31T11:31:52;2.45;;;1.70;;
51312;SDS011;37397;53.226;10.400;2023-08-31T11:34:18;1.70;;;1.40;;
51312;SDS011;37397;53.226;10.400;2023-08-31T11:36:46;2.78;;;1.60;;
51312;SDS011;37397;53.226;10.400;2023-08-31T11:39:13;2.08;;;1.60;;
51312;SDS011;37397;53.226;10.400;2023-08-31T11:41:40;2.55;;;2.00;;
51312;SDS011;37397;53.226;10.400;2023-08-31T11:44:08;2.85;;;1.42;;
51312;SDS011;37397;53.226;10.400;2023-08-31T11:46:36;4.45;;;1.67;;
51312;SDS011;37397;53.226;10.400;2023-08-31T11:49:04;3.63;;;1.90;;
51312;SDS011;37397;53.226;10.400;2023-08-31T11:51:35;2.78;;;1.40;;
51312;SDS011;37397;53.226;10.400;2023-08-31T11:54:05;3.00;;;1.50;;
51312;SDS011;37397;53.226;10.400;2023-08-31T11:56:44;3.22;;;1.67;;
51312;SDS011;37397;53.226;10.400;2023-08-31T11:59:17;3.47;;;1.88;;
51312;SDS011;37397;53.226;10.400;2023-08-31T12:01:46;2.25;;;1.75;;
51312;SDS011;37397;53.226;10.400;2023-08-31T12:04:19;4.15;;;1.80;;
51312;SDS011;37397;53.226;10.400;2023-08-31T12:06:47;2.78;;;1.77;;
51312;SDS011;37397;53.226;10.400;2023-08-31T12:09:16;4.43;;;1.60;;
51312;SDS011;37397;53.226;10.400;2023-08-31T12:11:50;3.58;;;1.92;;
51312;SDS011;37397;53.226;10.400;2023-08-31T12:14:19;5.30;;;1.90;;
51312;SDS011;37397;53.226;10.400;2023-08-31T12:16:49;4.20;;;1.80;;
51312;SDS011;37397;53.226;10.400;2023-08-31T12:19:17;4.35;;;2.10;;
51312;SDS011;37397;53.226;10.400;2023-08-31T12:21:45;2.40;;;1.85;;
51312;SDS011;37397;53.226;10.400;2023-08-31T12:24:12;5.93;;;2.22;;
51312;SDS011;37397;53.226;10.400;2023-08-31T12:26:39;4.30;;;2.33;;
51312;SDS011;37397;53.226;10.400;2023-08-31T12:29:06;6.18;;;2.00;;
51312;SDS011;37397;53.226;10.400;2023-08-31T12:31:33;6.20;;;1.90;;
51312;SDS011;37397;53.226;10.400;2023-08-31T12:33:59;4.10;;;2.22;;
51312;SDS011;37397;53.226;10.400;2023-08-31T12:36:26;3.83;;;2.13;;
51312;SDS011;37397;53.226;10.400;2023-08-31T12:38:53;3.42;;;2.17;;
51312;SDS011;37397;53.226;10.400;2023-08-31T12:41:19;5.32;;;2.30;;
51312;SDS011;37397;53.226;10.400;2023-08-31T12:43:50;4.30;;;2.10;;
51312;SDS011;37397;53.226;10.400;2023-08-31T12:46:16;3.42;;;2.10;;
51312;SDS011;37397;53.226;10.400;2023-08-31T12:48:43;3.75;;;2.20;;
51312;SDS011;37397;53.226;10.400;2023-08-31T12:51:10;3.38;;;2.30;;
51312;SDS011;37397;53.226;10.400;2023-08-31T12:53:39;5.00;;;2.40;;
51312;SDS011;37397;53.226;10.400;2023-08-31T12:56:06;4.38;;;2.30;;
51312;SDS011;37397;53.226;10.400;2023-08-31T12:58:32;3.53;;;2.25;;
51312;SDS011;37397;53.226;10.400;2023-08-31T13:00:59;3.72;;;2.10;;
51312;SDS011;37397;53.226;10.400;2023-08-31T13:03:26;4.95;;;2.10;;
51312;SDS011;37397;53.226;10.400;2023-08-31T13:05:53;6.18;;;2.63;;
51312;SDS011;37397;53.226;10.400;2023-08-31T13:08:20;5.30;;;2.17;;
51312;SDS011;37397;53.226;10.400;2023-08-31T13:10:55;3.58;;;2.22;;
51312;SDS011;37397;53.226;10.400;2023-08-31T13:13:22;4.20;;;2.20;;
51312;SDS011;37397;53.226;10.400;2023-08-31T13:15:49;5.85;;;2.38;;
51312;SDS011;37397;53.226;10.400;2023-08-31T13:18:16;5.13;;;2.28;;
51312;SDS011;37397;53.226;10.400;2023-08-31T13:20:52;5.03;;;2.60;;
51312;SDS011;37397;53.226;10.400;2023-08-31T13:23:20;3.70;;;1.75;;
51312;SDS011;37397;53.226;10.400;2023-08-31T13:25:47;2.90;;;1.70;;
51312;SDS011;37397;53.226;10.400;2023-08-31T13:28:14;4.90;;;1.70;;
51312;SDS011;37397;53.226;10.400;2023-08-31T13:30:41;5.28;;;1.70;;
51312;SDS011;37397;53.226;10.400;2023-08-31T13:33:08;5.18;;;1.75;;
51312;SDS011;37397;53.226;10.400;2023-08-31T13:35:35;4.20;;;1.77;;
51312;SDS011;37397;53.226;10.400;2023-08-31T13:38:02;4.32;;;1.60;;
51312;SDS011;37397;53.226;10.400;2023-08-31T13:40:29;2.75;;;1.63;;
51312;SDS011;37397;53.226;10.400;2023-08-31T13:42:57;2.63;;;1.60;;
51312;SDS011;37397;53.226;10.400;2023-08-31T13:45:29;2.30;;;1.52;;
51312;SDS011;37397;53.226;10.400;2023-08-31T13:47:57;3.47;;;1.50;;
51312;SDS011;37397;53.226;10.400;2023-08-31T13:50:27;3.47;;;1.33;;
51312;SDS011;37397;53.226;10.400;2023-08-31T13:52:53;15.98;;;4.78;;
51312;SDS011;37397;53.226;10.400;2023-08-31T13:55:21;9.65;;;2.80;;
51312;SDS011;37397;53.226;10.400;2023-08-31T13:57:48;5.97;;;2.45;;
51312;SDS011;37397;53.226;10.400;2023-08-31T14:00:15;4.65;;;1.95;;
51312;SDS011;37397;53.226;10.400;2023-08-31T14:02:43;4.70;;;1.38;;
51312;SDS011;37397;53.226;10.400;2023-08-31T14:05:10;3.78;;;1.13;;
51312;SDS011;37397;53.226;10.400;2023-08-31T14:07:37;1.80;;;1.10;;
51312;SDS011;37397;53.226;10.400;2023-08-31T14:10:04;5.80;;;1.33;;
51312;SDS011;37397;53.226;10.400;2023-08-31T14:12:31;4.32;;;1.27;;
51312;SDS011;37397;53.226;10.400;2023-08-31T14:14:58;4.28;;;1.40;;
51312;SDS011;37397;53.226;10.400;2023-08-31T14:17:27;3.38;;;1.50;;
51312;SDS011;37397;53.226;10.400;2023-08-31T14:19:54;3.15;;;1.15;;
51312;SDS011;37397;53.226;10.400;2023-08-31T14:22:20;3.22;;;1.13;;
51312;SDS011;37397;53.226;10.400;2023-08-31T14:24:47;3.92;;;1.30;;
51312;SDS011;37397;53.226;10.400;2023-08-31T14:27:13;1.48;;;1.00;;
51312;SDS011;37397;53.226;10.400;2023-08-31T14:29:40;4.65;;;1.40;;
51312;SDS011;37397;53.226;10.400;2023-08-31T14:32:06;2.83;;;1.15;;
51312;SDS011;37397;53.226;10.400;2023-08-31T14:34:33;2.17;;;1.00;;
51312;SDS011;37397;53.226;10.400;2023-08-31T14:36:59;2.25;;;1.23;;
51312;SDS011;37397;53.226;10.400;2023-08-31T14:39:27;4.68;;;1.30;;
51312;SDS011;37397;53.226;10.400;2023-08-31T14:41:56;2.25;;;0.80;;
51312;SDS011;37397;53.226;10.400;2023-08-31T14:44:24;3.33;;;1.17;;
51312;SDS011;37397;53.226;10.400;2023-08-31T14:46:51;1.90;;;0.90;;